createdAt,value
2023-04-27T00:04:37.789Z,3.6
2023-04-27T00:10:57.627Z,3.6
2023-04-27T00:17:20.629Z,2.9
2023-04-27T00:23:40.529Z,2.9
2023-04-27T00:30:03.644Z,2.6
2023-04-27T00:36:23.590Z,2.6
2023-04-27T00:42:46.633Z,2.6
2023-04-27T00:49:06.589Z,2.6
2023-04-27T00:55:29.767Z,3.1
2023-04-27T01:01:49.631Z,3.1
2023-04-27T01:08:12.600Z,2.7
2023-04-27T01:14:32.626Z,2.7
2023-04-27T01:20:55.674Z,2.5
2023-04-27T01:27:15.589Z,2.5
2023-04-27T01:33:38.556Z,3.1
2023-04-27T01:39:58.581Z,3.1
2023-04-27T01:46:21.629Z,3.3
2023-04-27T01:52:41.568Z,3.3
2023-04-27T01:59:04.702Z,2.7
2023-04-27T02:05:24.594Z,2.7
2023-04-27T02:11:47.538Z,2.1
2023-04-27T02:18:07.591Z,2.1
2023-04-27T02:24:30.526Z,2.4
2023-04-27T02:30:50.518Z,2.4
2023-04-27T02:37:13.606Z,2.6
2023-04-27T02:43:33.650Z,2.6
2023-04-27T02:49:56.631Z,2
2023-04-27T02:56:16.545Z,2
2023-04-27T03:02:39.652Z,3.1
2023-04-27T03:08:59.553Z,3.1
2023-04-27T03:15:22.609Z,3.9
2023-04-27T03:39:04.441Z,1.7
2023-04-27T03:45:24.603Z,1.7
2023-04-27T03:51:47.644Z,1.9
2023-04-27T03:58:07.567Z,1.9
2023-04-27T04:04:30.918Z,1.9
2023-04-27T04:10:50.511Z,1.9
2023-04-27T04:17:13.570Z,3.6
2023-04-27T04:23:33.542Z,3.6
2023-04-27T04:29:56.546Z,3.8
2023-04-27T04:36:16.616Z,3.8
2023-04-27T04:42:39.543Z,2.4
2023-04-27T04:48:59.674Z,2.4
2023-04-27T04:55:22.649Z,3.1
2023-04-27T05:01:42.738Z,3.1
2023-04-27T05:08:05.530Z,2.7
2023-04-27T05:14:25.625Z,2.7
2023-04-27T05:20:48.664Z,3.1
2023-04-27T05:27:08.628Z,3.1
2023-04-27T05:33:31.625Z,4.1
2023-04-27T05:39:51.686Z,4.1
2023-04-27T05:46:14.718Z,3.4
2023-04-27T05:52:35.804Z,3.4
2023-04-27T05:58:57.619Z,5.2
2023-04-27T06:05:17.648Z,5.2
2023-04-27T06:11:40.744Z,1.5
2023-04-27T06:18:00.641Z,1.5
2023-04-27T06:24:23.545Z,3.4
2023-04-27T06:30:43.551Z,3.4
2023-04-27T06:37:06.522Z,3.3
2023-04-27T06:43:26.817Z,3.3
2023-04-27T06:49:49.917Z,2.3
2023-04-27T06:56:09.572Z,2.3
2023-04-27T07:02:32.662Z,4.7
2023-04-27T07:08:52.619Z,4.7
2023-04-27T07:15:15.613Z,3.1
2023-04-27T07:21:35.505Z,3.1
2023-04-27T07:27:58.519Z,3.3
2023-04-27T07:34:18.573Z,3.3
2023-04-27T07:40:43.213Z,7.2
2023-04-27T07:47:01.508Z,7.2
2023-04-27T07:53:24.595Z,3.6
2023-04-27T07:59:44.531Z,3.6
2023-04-27T08:06:07.976Z,3.7
2023-04-27T08:12:27.621Z,3.7
2023-04-27T08:18:50.828Z,3.2
2023-04-27T08:25:10.653Z,3.2
2023-04-27T08:31:33.580Z,5.9
2023-04-27T08:55:32.569Z,3
2023-04-27T09:01:52.816Z,3
2023-04-27T09:08:16.657Z,2.7
2023-04-27T09:14:36.728Z,2.7
2023-04-27T09:20:59.509Z,3.2
2023-04-27T09:27:19.538Z,3.2
2023-04-27T09:33:42.648Z,5.5
2023-04-27T09:40:02.494Z,5.5
2023-04-27T09:46:25.553Z,5.3
2023-04-27T09:52:45.534Z,5.3
2023-04-27T09:59:08.552Z,3.5
2023-04-27T10:05:28.906Z,3.5
2023-04-27T10:11:51.508Z,4.1
2023-04-27T10:18:11.610Z,4.1
2023-04-27T10:24:34.531Z,2.9
2023-04-27T10:30:54.598Z,2.9
2023-04-27T10:37:17.569Z,7.5
2023-04-27T10:43:37.543Z,7.5
2023-04-27T10:50:00.645Z,2.7
2023-04-27T10:56:20.516Z,2.7
2023-04-27T11:02:43.691Z,3.6
2023-04-27T11:09:03.552Z,3.6
2023-04-27T11:15:26.561Z,3.5
2023-04-27T11:21:46.494Z,3.5
2023-04-27T11:28:09.711Z,3.1
2023-04-27T11:34:29.597Z,3.1
2023-04-27T11:40:52.646Z,2.9
2023-04-27T11:47:12.646Z,2.9
2023-04-27T11:53:35.508Z,4.2
2023-04-27T11:59:55.543Z,4.2
2023-04-27T12:06:32.074Z,1.6
2023-04-27T12:12:38.497Z,1.6
2023-04-27T12:19:01.601Z,3.5
2023-04-27T12:25:21.590Z,3.5
2023-04-27T12:31:44.638Z,3.7
2023-04-27T12:38:04.522Z,3.7
2023-04-27T12:44:27.535Z,4.3
2023-04-27T12:50:47.535Z,4.3
2023-04-27T12:57:10.523Z,3
2023-04-27T13:03:30.694Z,3
2023-04-27T13:09:53.521Z,4.2
2023-04-27T13:16:13.698Z,4.2
2023-04-27T13:22:36.571Z,4.7
2023-04-27T13:28:56.490Z,4.7
2023-04-27T13:35:19.558Z,2.6
2023-04-27T13:41:39.556Z,2.6
2023-04-27T13:48:02.542Z,3.1
2023-04-27T13:54:22.560Z,3.1
2023-04-27T14:00:45.596Z,2.2
2023-04-27T14:07:05.483Z,2.2
2023-04-27T14:30:58.569Z,4.1
2023-04-27T14:37:22.894Z,4.1
2023-04-27T14:43:42.481Z,4.1
2023-04-27T14:50:05.597Z,2.4
2023-04-27T14:56:25.502Z,2.4
2023-04-27T15:02:48.537Z,2.5
2023-04-27T15:09:08.836Z,2.5
2023-04-27T15:15:31.550Z,2.1
2023-04-27T15:21:51.546Z,2.1
2023-04-27T15:28:14.504Z,2
2023-04-27T15:34:34.524Z,2
2023-04-27T15:40:57.529Z,1.2
2023-04-27T15:47:17.521Z,1.2
2023-04-27T15:53:40.588Z,1.9
2023-04-27T16:00:00.521Z,1.9
2023-04-27T16:06:23.559Z,1.6
2023-04-27T16:12:43.488Z,1.6
2023-04-27T16:19:06.598Z,2.5
2023-04-27T16:25:26.616Z,2.5
2023-04-27T16:31:49.573Z,0.6
2023-04-27T16:38:09.569Z,0.6
2023-04-27T16:44:32.664Z,1.4
2023-04-27T16:50:54.258Z,1.4
2023-04-27T16:57:15.546Z,2.3
2023-04-27T17:03:35.651Z,2.3
2023-04-27T17:09:58.529Z,1.6
2023-04-27T17:16:18.685Z,1.6
2023-04-27T17:22:41.532Z,1.3
2023-04-27T17:29:01.558Z,1.3
2023-04-27T17:35:24.537Z,1.2
2023-04-27T17:41:44.569Z,1.2
2023-04-27T17:48:07.605Z,1.8
2023-04-27T17:54:29.417Z,1.8
2023-04-27T18:00:50.594Z,1.6
2023-04-27T18:07:10.503Z,1.6
2023-04-27T18:13:33.534Z,1.1
2023-04-27T18:20:04.564Z,1.1
2023-04-27T18:26:16.588Z,1.8
2023-04-27T18:32:36.607Z,1.8
2023-04-27T18:38:59.502Z,1.9
2023-04-27T18:45:19.525Z,1.9
2023-04-27T18:51:42.565Z,1.5
2023-04-27T18:58:02.504Z,1.5
2023-04-27T19:04:25.586Z,2.5
2023-04-27T19:10:45.510Z,2.5
2023-04-27T19:17:08.546Z,1.4
2023-04-27T19:23:28.593Z,1.4
2023-04-27T19:29:51.497Z,1.4
2023-04-27T19:36:11.575Z,1.4
2023-04-27T19:42:34.528Z,2.8
2023-04-27T19:48:54.617Z,2.8
2023-04-27T20:05:23.033Z,3.4
2023-04-27T20:11:42.509Z,3.4
2023-04-27T20:18:05.498Z,3.4
2023-04-27T20:24:27.139Z,3.4
2023-04-27T20:30:49.509Z,1
2023-04-27T20:37:09.531Z,1
2023-04-27T20:43:32.607Z,3.6
2023-04-27T20:49:52.474Z,3.6
2023-04-27T20:56:15.566Z,1.4
2023-04-27T21:02:35.859Z,1.4
2023-04-27T21:08:58.475Z,1.5
2023-04-27T21:15:18.626Z,1.5
2023-04-27T21:21:41.508Z,2
2023-04-27T21:28:01.559Z,2
2023-04-27T21:34:24.528Z,1.9
2023-04-27T21:40:44.537Z,1.9
2023-04-27T21:47:07.527Z,2.4
2023-04-27T21:53:27.475Z,2.4
2023-04-27T21:59:50.495Z,2.3
2023-04-27T22:22:47.498Z,4
2023-04-27T22:29:07.556Z,4
2023-04-27T22:35:30.502Z,4
2023-04-27T22:41:50.668Z,4
2023-04-27T22:48:13.525Z,2.2
2023-04-27T22:54:33.600Z,2.2
2023-04-27T23:00:56.578Z,2.8
2023-04-27T23:07:16.616Z,2.8
2023-04-27T23:13:39.590Z,2.5
2023-04-27T23:19:59.607Z,2.5
2023-04-27T23:26:22.526Z,2.2
2023-04-27T23:32:42.612Z,2.2
2023-04-27T23:39:05.523Z,4.5
2023-04-27T23:45:25.641Z,4.5
2023-04-27T23:51:48.500Z,1.8
2023-04-27T23:58:08.599Z,1.8
